Accueil
METAR-TAF:

METAR-TAF

Aéroports :

Pampelune, Espagne

Aéroport de Pampelune

latitude: 42-46N, longitude: 001-38W, altitude: 459 m

Observation

Le bulletin a été fait il y a 25 minutes, à 06:30 UTC
Vent 6 kt de nord-ouest
Température 19°C
Humidité 83%
Pression 1023 hPa
Visibilité 10 km ou plus
Quelques nuages à une hauteur de 1700 ft
Nuages épars à une hauteur de 2200 ft

METAR: LEPP 230630Z 31006KT 9999 FEW017 SCT022 19/16 Q1023

Heure: 08:55 (06:55 UTC)

Prévision

Le bulletin a été fait il y a 4 heures et 55 minutes, à 02:00 UTC
Prévision valable du 23 à 03 UTC au 24 à 03 UTC
Vent 9 kt de nord/nord-ouest
Visibilité 10 km ou plus
pas de nuages en-dessous de 1500 mètres et pas de cumulonimbus.
Temporairement
du 23 à 12 UTC au 23 à 24 UTC
Vent 15 kt de nord/nord-ouest avec des rafales jusqu'à 27 kt

TAF: LEPP 230200Z 2303/2403 34009KT CAVOK TX29/2313Z TN15/2403Z TEMPO 2312/2324 34015G27KT

Observations et prévisions météorologiques de plus de 4000 aéroports (messages METAR et TAF).

Les stations disponibles sont représentées par des disques jaunes et rouges sur la carte.

Passer la souris dessus pour voir le nom de la station.

Cliquer dessus pour voir les observations et prévisions météorologiques.

Pour changer de carte: cliquez sur les boutons verts avec une croix noire pour zoomer, sur le bouton vert avec un tiret pour effectuer un zoom arrière, ou sur les flèches vertes pour les cartes adjacentes.


METAR-TAF: